Billings, MT (59102)

9:34 PM MDT on September 20, 2014 (GMT -0600)
QTH | Change Station
CLOSE
Current Station
Personal Weather Station
Location: Billings, MT
Elevation: 3228 ft
Nearby Weather Stations

Elev 3228 ft 45.78 °N, 108.57 °W | Updated 6 seconds ago

Clear
Clear
62.2 °F
Feels Like 62.2 °F
N
0.0
Wind Variable Wind from NE
Gusts 0.0 mph

Today
High -- | Low -- °F
--% Chance of Precip.
Yesterday
High -- | Low -- °F
Precip. -- in
6:58 AM 7:15 PM
Waning Crescent, 9% visible
Pressure 30.21 in
Visibility 10.0 miles
Clouds Clear
Dew Point 45 °F
Humidity 53%
Rainfall 0.00 in
Snow Depth 0 in , 0 in , 0 in
UV 0 out of 12
Pollen 5.30 out of 12
Air Quality Not available.
Flu Activity Not available.
METAR KBIL 210253Z 08007KT 10SM CLR 18/06 A3026 RMK AO2 SLP229 T01780056 53010

More Conditions Fewer Conditions

Pressure 30.21 in
Visibility 10.0 miles
Clouds Clear
Dew Point 45 °F
Humidity 53%
Rainfall 0.00 in
Snow Depth 0 in , 0 in , 0 in
UV 0 out of 12
Pollen 5.30 out of 12
Air Quality Not available.
Flu Activity Not available.
METAR KBIL 210253Z 08007KT 10SM CLR 18/06 A3026 RMK AO2 SLP229 T01780056 53010

More Conditions Fewer Conditions

10-Day Weather Forecast

Almanac

Astronomy

Sep. 20, 2014 Rise Set
Actual Time 6:58 AM MDT 7:15 PM MDT
Civil Twilight 6:29 AM MDT 7:45 PM MDT
Nautical Twilight 5:54 AM MDT 8:20 PM MDT
Astronomical Twilight 5:17 AM MDT 8:56 PM MDT
Moon 3:32 AM MDT (9/20) 5:27 PM MDT (9/20)
Length of Visible Light 13h 16m
Length of Day
12h 16m
Tomorrow will be 3m 12s shorter.
Waning Crescent, 9% of the Moon is Illuminated
Today
Waning Crescent
Sep 24
New
Oct 1
First Quarter
Oct 8
Full
Oct 15
Last Quarter

Today's Extremes

State Highs State Lows

Community

WunderPhotos

Upload Photos

1,755,073 photos uploaded!

Nearby

Snow Depth

Station Depth Elevation
Rocker Peak 0 in 8000 ft
Grave Creek 0 in 4300 ft
Badger Pass 1 in 6900 ft
Pickfoot Creek 0 in 6650 ft
Sleeping Woman 0 in 6150 ft

Earthquake Activity

City Distance Mag. Time & Date
No recent earthquake activity has been reported nearby.
Minimum magnitude displayed is 2.5.

Coastal Water Temperatures

Place Temperature
No Stations Reporting

Nearby Weather Stations